Moby Baby — ICEM — position and weather

sailwx.info

Track history (hours):
 
Tides and Currents Weather Stations Pressure Air Temp Water Temp Dewpoint Dewpoint Depression Visibility Wind Speed Wind Dir Waves Ship Positions

Moby Baby

Last reported at 2014-Sep-23 19:21 UTC. Time now 2014-Sep-24 00:29 UTC.
Position N 42°49' E 010°21'.

Length 99 m; draft 4.5 m.

Type: Ship. MMSI: 247049900.

Date/timePositionNaut miles runAvg speedWind from/ knotsBaromVisibWave heightAir tempDewpointWater temp
2014-Sep-23 19:21N 42°49' E 010°21'10 1.0
2014-Sep-23 09:23N 42°54' E 010°32'11 5.0
2014-Sep-23 07:11N 42°49' E 010°19'913.8
2014-Sep-23 06:33N 42°54' E 010°29'4 3.5
2014-Sep-23 05:31N 42°56' E 010°33'12 1.2
2014-Sep-22 19:31N 42°48' E 010°20'6 1.5
2014-Sep-22 15:32N 42°53' E 010°25'5 0.3
2014-Sep-21 19:26N 42°49' E 010°21'5 2.6
2014-Sep-21 17:33N 42°53' E 010°25'1 0.4
2014-Sep-21 15:33N 42°53' E 010°26'6 6.4
2014-Sep-21 14:34N 42°56' E 010°33'1311.5
2014-Sep-21 13:28N 42°49' E 010°19'11 9.1
2014-Sep-21 12:16N 42°55' E 010°32'2 1.1
2014-Sep-21 10:32N 42°56' E 010°33'13 8.8
2014-Sep-21 09:06N 42°49' E 010°19'0 0.0
2014-Sep-21 08:28N 42°49' E 010°19'0 0.0
2014-Sep-20 18:22N 42°49' E 010°19'0 0.0
2014-Sep-20 17:31N 42°49' E 010°19'0 0.0
2014-Sep-20 16:33N 42°49' E 010°19'6 6.3
2014-Sep-20 15:33N 42°53' E 010°25'6 6.2
2014-Sep-20 14:33N 42°56' E 010°33'1212.3
2014-Sep-20 13:33N 42°49' E 010°19'7 7.2
2014-Sep-20 12:33N 42°54' E 010°26'4 1.4
2014-Sep-20 09:22N 42°54' E 010°32'1 0.2
2014-Sep-20 06:24N 42°55' E 010°32'1 0.6
2014-Sep-20 05:25N 42°54' E 010°33'1113.1
2014-Sep-20 04:33N 42°49' E 010°19'0 0.0
2014-Sep-20 03:34N 42°49' E 010°19'0 0.0
2014-Sep-20 02:33N 42°49' E 010°19'8 0.4
2014-Sep-19 05:07N 42°53' E 010°28'6 0.6
2014-Sep-18 19:20N 42°50' E 010°21'4 2.0
2014-Sep-18 17:32N 42°53' E 010°24'1 0.4
2014-Sep-18 15:33N 42°53' E 010°25'5 4.4
2014-Sep-18 14:21N 42°54' E 010°32'3 0.3
2014-Sep-18 05:08N 42°53' E 010°28'8 1.1
2014-Sep-17 21:27N 42°49' E 010°19'0 0.0
2014-Sep-17 20:16N 42°49' E 010°19'0 0.0
2014-Sep-17 19:33N 42°49' E 010°19'12 9.2
2014-Sep-17 18:13N 42°56' E 010°33'6 9.5
2014-Sep-17 17:33N 42°53' E 010°25'0 0.2
2014-Sep-17 15:33N 42°53' E 010°25'7 6.7
2014-Sep-17 14:33N 42°56' E 010°33'13 9.8
2014-Sep-17 13:15N 42°49' E 010°19'910.6
2014-Sep-17 12:26N 42°54' E 010°29'8 1.4
2014-Sep-17 07:06N 42°49' E 010°21'814.5
2014-Sep-17 06:33N 42°54' E 010°30'2 2.1
2014-Sep-17 05:22N 42°54' E 010°33'7 0.7
2014-Sep-16 19:07N 42°52' E 010°24'1 0.5
2014-Sep-16 17:33N 42°53' E 010°25'6 4.3
2014-Sep-16 16:13N 42°49' E 010°19'1113.7
2014-Sep-16 15:26N 42°54' E 010°32'2 2.3
2014-Sep-16 14:32N 42°56' E 010°34'1310.5
2014-Sep-16 13:20N 42°49' E 010°19'7 9.1
2014-Sep-16 12:33N 42°53' E 010°27'6 1.9
2014-Sep-16 09:33N 42°56' E 010°33'12 5.0
2014-Sep-16 07:10N 42°49' E 010°20'1014.4
2014-Sep-16 06:26N 42°55' E 010°32'0 0.4
2014-Sep-16 05:19N 42°54' E 010°32'11 1.1
2014-Sep-15 19:29N 42°49' E 010°20'13 9.1
2014-Sep-15 18:05N 42°56' E 010°33'713.3
2014-Sep-15 17:33N 42°53' E 010°25'2 0.7
2014-Sep-15 15:28N 42°53' E 010°27'4 3.6
2014-Sep-15 14:21N 42°54' E 010°32'3 1.7
2014-Sep-15 12:28N 42°54' E 010°28'3 1.0
2014-Sep-15 09:21N 42°54' E 010°32'11 0.8
2014-Sep-14 19:28N 42°48' E 010°20'1313.9
2014-Sep-14 18:33N 42°56' E 010°33'6 2.1
2014-Sep-14 15:33N 42°53' E 010°26'5 4.9
2014-Sep-14 14:28N 42°54' E 010°33'1111.0
2014-Sep-14 13:26N 42°49' E 010°19'6 7.0
2014-Sep-14 12:33N 42°53' E 010°25'7 2.2
2014-Sep-14 09:31N 42°56' E 010°33'12 5.0
2014-Sep-14 07:06N 42°49' E 010°20'914.4
2014-Sep-14 06:29N 42°54' E 010°30'1 0.5
2014-Sep-14 05:11N 42°54' E 010°29'9 3.4
2014-Sep-14 02:33N 42°49' E 010°19'  
Track history (hours):
 
Tides and Currents Weather Stations Pressure Air Temp Water Temp Dewpoint Dewpoint Depression Visibility Wind Speed Wind Dir Waves Ship Positions

Moby Baby

Last reported at 2014-Sep-23 19:21 UTC. Time now 2014-Sep-24 00:29 UTC.
Position N 42°49' E 010°21'.

Length 99 m; draft 4.5 m.

Type: Ship. MMSI: 247049900.

Date/timePositionNaut miles runAvg speedWind from/ knotsBaromVisibWave heightAir tempDewpointWater temp
2014-Sep-23 19:21N 42°49' E 010°21'10 1.0
2014-Sep-23 09:23N 42°54' E 010°32'11 5.0
2014-Sep-23 07:11N 42°49' E 010°19'913.8
2014-Sep-23 06:33N 42°54' E 010°29'4 3.5
2014-Sep-23 05:31N 42°56' E 010°33'12 1.2
2014-Sep-22 19:31N 42°48' E 010°20'6 1.5
2014-Sep-22 15:32N 42°53' E 010°25'5 0.3
2014-Sep-21 19:26N 42°49' E 010°21'5 2.6
2014-Sep-21 17:33N 42°53' E 010°25'1 0.4
2014-Sep-21 15:33N 42°53' E 010°26'6 6.4
2014-Sep-21 14:34N 42°56' E 010°33'1311.5
2014-Sep-21 13:28N 42°49' E 010°19'11 9.1
2014-Sep-21 12:16N 42°55' E 010°32'2 1.1
2014-Sep-21 10:32N 42°56' E 010°33'13 8.8
2014-Sep-21 09:06N 42°49' E 010°19'0 0.0
2014-Sep-21 08:28N 42°49' E 010°19'0 0.0
2014-Sep-20 18:22N 42°49' E 010°19'0 0.0
2014-Sep-20 17:31N 42°49' E 010°19'0 0.0
2014-Sep-20 16:33N 42°49' E 010°19'6 6.3
2014-Sep-20 15:33N 42°53' E 010°25'6 6.2
2014-Sep-20 14:33N 42°56' E 010°33'1212.3
2014-Sep-20 13:33N 42°49' E 010°19'7 7.2
2014-Sep-20 12:33N 42°54' E 010°26'4 1.4
2014-Sep-20 09:22N 42°54' E 010°32'1 0.2
2014-Sep-20 06:24N 42°55' E 010°32'1 0.6
2014-Sep-20 05:25N 42°54' E 010°33'1113.1
2014-Sep-20 04:33N 42°49' E 010°19'0 0.0
2014-Sep-20 03:34N 42°49' E 010°19'0 0.0
2014-Sep-20 02:33N 42°49' E 010°19'8 0.4
2014-Sep-19 05:07N 42°53' E 010°28'6 0.6
2014-Sep-18 19:20N 42°50' E 010°21'4 2.0
2014-Sep-18 17:32N 42°53' E 010°24'1 0.4
2014-Sep-18 15:33N 42°53' E 010°25'5 4.4
2014-Sep-18 14:21N 42°54' E 010°32'3 0.3
2014-Sep-18 05:08N 42°53' E 010°28'8 1.1
2014-Sep-17 21:27N 42°49' E 010°19'0 0.0
2014-Sep-17 20:16N 42°49' E 010°19'0 0.0
2014-Sep-17 19:33N 42°49' E 010°19'12 9.2
2014-Sep-17 18:13N 42°56' E 010°33'6 9.5
2014-Sep-17 17:33N 42°53' E 010°25'0 0.2
2014-Sep-17 15:33N 42°53' E 010°25'7 6.7
2014-Sep-17 14:33N 42°56' E 010°33'13 9.8
2014-Sep-17 13:15N 42°49' E 010°19'910.6
2014-Sep-17 12:26N 42°54' E 010°29'8 1.4
2014-Sep-17 07:06N 42°49' E 010°21'814.5
2014-Sep-17 06:33N 42°54' E 010°30'2 2.1
2014-Sep-17 05:22N 42°54' E 010°33'7 0.7
2014-Sep-16 19:07N 42°52' E 010°24'1 0.5
2014-Sep-16 17:33N 42°53' E 010°25'6 4.3
2014-Sep-16 16:13N 42°49' E 010°19'1113.7
2014-Sep-16 15:26N 42°54' E 010°32'2 2.3
2014-Sep-16 14:32N 42°56' E 010°34'1310.5
2014-Sep-16 13:20N 42°49' E 010°19'7 9.1
2014-Sep-16 12:33N 42°53' E 010°27'6 1.9
2014-Sep-16 09:33N 42°56' E 010°33'12 5.0
2014-Sep-16 07:10N 42°49' E 010°20'1014.4
2014-Sep-16 06:26N 42°55' E 010°32'0 0.4
2014-Sep-16 05:19N 42°54' E 010°32'11 1.1
2014-Sep-15 19:29N 42°49' E 010°20'13 9.1
2014-Sep-15 18:05N 42°56' E 010°33'713.3
2014-Sep-15 17:33N 42°53' E 010°25'2 0.7
2014-Sep-15 15:28N 42°53' E 010°27'4 3.6
2014-Sep-15 14:21N 42°54' E 010°32'3 1.7
2014-Sep-15 12:28N 42°54' E 010°28'3 1.0
2014-Sep-15 09:21N 42°54' E 010°32'11 0.8
2014-Sep-14 19:28N 42°48' E 010°20'1313.9
2014-Sep-14 18:33N 42°56' E 010°33'6 2.1
2014-Sep-14 15:33N 42°53' E 010°26'5 4.9
2014-Sep-14 14:28N 42°54' E 010°33'1111.0
2014-Sep-14 13:26N 42°49' E 010°19'6 7.0
2014-Sep-14 12:33N 42°53' E 010°25'7 2.2
2014-Sep-14 09:31N 42°56' E 010°33'12 5.0
2014-Sep-14 07:06N 42°49' E 010°20'914.4
2014-Sep-14 06:29N 42°54' E 010°30'1 0.5
2014-Sep-14 05:11N 42°54' E 010°29'9 3.4
2014-Sep-14 02:33N 42°49' E 010°19'  

Dump ship's entire track history